Etusivu
METAR-TAF:

METAR-TAF

Lentoasemat :

Bakersfield, Kalifornia, Yhdysvallat

Leveyspiiri: 35-26-01N, Pituuspiiri: 119-03-24W, korkeus merenpinnasta: 155 m

Tämänhetkinen sää

Tämä raportti tehtiin 21 minuuttia sitten, kello 08.54 UTC
Tuuli 5 kn pohjoisen/luoteesta
Lämpötila 9°C
Kosteus 66%
Ilmanpaine 1020 hPa
Näkyvyys: 16.1 km
selkeää

METAR: KBFL 170854Z AUTO 33005KT 10SM CLR 09/03 A3011 RMK AO2 SLP192 T00890028 53001

Aika: 01:15 (09:15 UTC)

Sääennuste

Tämä raportti tehtiin 3 tuntia ja 55 minuuttia sitten, kello 05.20 UTC
Ennuste voimassa 17. päivästä klo 06 UTC - 18. päivään klo 06 UTC
Tuuli 4 kn eri suunnista
Näkyvyys: 10 km
Hajanaisia pilviä 20000 ft:n korkeudessa

TAF: KBFL 170520Z 1706/1806 VRB04KT P6SM SCT200

Säähavainnot ja -ennusteet yli 4000 lentoasemalta (METAR- ja TAF-raportit).

Käytössä olevat sääasemat on merkitty karttaan keltaisilla ja punaisilla pisteillä.

Aseta hiiri pisteen päälle nähdäksesi sääaseman nimen.

Klikkaa sitten nähdäksesi säähavainnot ja -ennusteet.

Kartan vaihtaminen: klikkaa mustalla rastilla varustettuja vihreitä pisteitä, niin voit zoomata sisään; viivalla varustettua vihreää pistettä, niin voit zoomata ulos tai vihreitä nuolia, niin pääset viereisille kartoille.


METAR-TAF: